sensor_id;sensor_type;location;lat;lon;timestamp;P1;durP1;ratioP1;P2;durP2;ratioP2
20322;SDS011;10319;52.206;20.996;2022-09-27T00:01:27;21.50;;;9.70;;
20322;SDS011;10319;52.206;20.996;2022-09-27T00:03:52;20.47;;;10.60;;
20322;SDS011;10319;52.206;20.996;2022-09-27T00:06:22;22.60;;;11.67;;
20322;SDS011;10319;52.206;20.996;2022-09-27T00:08:48;21.57;;;11.23;;
20322;SDS011;10319;52.206;20.996;2022-09-27T00:13:51;22.30;;;11.17;;
20322;SDS011;10319;52.206;20.996;2022-09-27T00:16:16;22.37;;;11.57;;
20322;SDS011;10319;52.206;20.996;2022-09-27T00:18:41;21.97;;;11.37;;
20322;SDS011;10319;52.206;20.996;2022-09-27T00:21:07;21.17;;;11.13;;
20322;SDS011;10319;52.206;20.996;2022-09-27T00:23:33;20.90;;;11.10;;
20322;SDS011;10319;52.206;20.996;2022-09-27T00:25:58;21.70;;;10.90;;
20322;SDS011;10319;52.206;20.996;2022-09-27T00:28:24;20.30;;;9.57;;
20322;SDS011;10319;52.206;20.996;2022-09-27T00:30:49;21.47;;;11.37;;
20322;SDS011;10319;52.206;20.996;2022-09-27T00:33:14;19.40;;;10.67;;
20322;SDS011;10319;52.206;20.996;2022-09-27T00:35:40;22.30;;;11.20;;
20322;SDS011;10319;52.206;20.996;2022-09-27T00:38:05;20.00;;;10.57;;
20322;SDS011;10319;52.206;20.996;2022-09-27T00:40:33;21.87;;;11.50;;
20322;SDS011;10319;52.206;20.996;2022-09-27T00:42:58;23.67;;;11.80;;
20322;SDS011;10319;52.206;20.996;2022-09-27T00:45:23;21.20;;;11.40;;
20322;SDS011;10319;52.206;20.996;2022-09-27T00:47:50;18.80;;;9.93;;
20322;SDS011;10319;52.206;20.996;2022-09-27T00:53:00;18.27;;;9.63;;
20322;SDS011;10319;52.206;20.996;2022-09-27T00:55:28;23.07;;;11.80;;
20322;SDS011;10319;52.206;20.996;2022-09-27T00:57:54;21.30;;;11.67;;
20322;SDS011;10319;52.206;20.996;2022-09-27T01:00:20;20.97;;;11.10;;
20322;SDS011;10319;52.206;20.996;2022-09-27T01:02:50;20.67;;;10.87;;
20322;SDS011;10319;52.206;20.996;2022-09-27T01:05:17;21.10;;;11.00;;
20322;SDS011;10319;52.206;20.996;2022-09-27T01:07:44;20.00;;;10.53;;
20322;SDS011;10319;52.206;20.996;2022-09-27T01:10:09;20.73;;;10.30;;
20322;SDS011;10319;52.206;20.996;2022-09-27T01:12:43;21.73;;;11.43;;
20322;SDS011;10319;52.206;20.996;2022-09-27T01:27:49;21.60;;;9.87;;
20322;SDS011;10319;52.206;20.996;2022-09-27T01:30:20;20.20;;;10.20;;
20322;SDS011;10319;52.206;20.996;2022-09-27T01:35:51;21.23;;;11.23;;
20322;SDS011;10319;52.206;20.996;2022-09-27T01:41:07;20.57;;;10.93;;
20322;SDS011;10319;52.206;20.996;2022-09-27T01:43:40;21.10;;;11.10;;
20322;SDS011;10319;52.206;20.996;2022-09-27T01:46:07;19.90;;;10.70;;
20322;SDS011;10319;52.206;20.996;2022-09-27T01:48:36;20.90;;;11.07;;
20322;SDS011;10319;52.206;20.996;2022-09-27T01:53:46;22.33;;;11.37;;
20322;SDS011;10319;52.206;20.996;2022-09-27T01:56:14;21.37;;;11.40;;
20322;SDS011;10319;52.206;20.996;2022-09-27T01:58:48;19.73;;;10.93;;
20322;SDS011;10319;52.206;20.996;2022-09-27T02:01:15;19.17;;;9.43;;
20322;SDS011;10319;52.206;20.996;2022-09-27T02:03:43;18.87;;;9.40;;
20322;SDS011;10319;52.206;20.996;2022-09-27T02:06:14;21.50;;;11.13;;
20322;SDS011;10319;52.206;20.996;2022-09-27T02:08:48;21.63;;;11.27;;
20322;SDS011;10319;52.206;20.996;2022-09-27T02:11:15;22.17;;;11.37;;
20322;SDS011;10319;52.206;20.996;2022-09-27T02:16:14;19.60;;;10.03;;
20322;SDS011;10319;52.206;20.996;2022-09-27T02:21:51;19.03;;;9.80;;
20322;SDS011;10319;52.206;20.996;2022-09-27T02:24:20;19.93;;;10.07;;
20322;SDS011;10319;52.206;20.996;2022-09-27T02:26:48;20.43;;;10.13;;
20322;SDS011;10319;52.206;20.996;2022-09-27T02:29:23;21.73;;;11.00;;
20322;SDS011;10319;52.206;20.996;2022-09-27T02:31:53;21.73;;;11.43;;
20322;SDS011;10319;52.206;20.996;2022-09-27T02:34:20;21.90;;;10.70;;
20322;SDS011;10319;52.206;20.996;2022-09-27T02:36:46;21.67;;;10.87;;
20322;SDS011;10319;52.206;20.996;2022-09-27T02:39:12;20.43;;;10.80;;
20322;SDS011;10319;52.206;20.996;2022-09-27T02:41:38;23.50;;;11.37;;
20322;SDS011;10319;52.206;20.996;2022-09-27T02:44:04;23.80;;;11.10;;
20322;SDS011;10319;52.206;20.996;2022-09-27T02:51:42;27.10;;;13.53;;
20322;SDS011;10319;52.206;20.996;2022-09-27T02:59:40;22.67;;;12.60;;
20322;SDS011;10319;52.206;20.996;2022-09-27T03:02:13;24.13;;;12.30;;
20322;SDS011;10319;52.206;20.996;2022-09-27T03:04:59;27.20;;;13.80;;
20322;SDS011;10319;52.206;20.996;2022-09-27T03:07:25;24.00;;;13.27;;
20322;SDS011;10319;52.206;20.996;2022-09-27T03:09:52;23.27;;;12.47;;
20322;SDS011;10319;52.206;20.996;2022-09-27T03:12:17;25.13;;;12.93;;
20322;SDS011;10319;52.206;20.996;2022-09-27T03:14:53;24.67;;;13.13;;
20322;SDS011;10319;52.206;20.996;2022-09-27T03:17:19;24.70;;;12.67;;
20322;SDS011;10319;52.206;20.996;2022-09-27T03:19:44;27.43;;;14.43;;
20322;SDS011;10319;52.206;20.996;2022-09-27T03:22:09;24.83;;;13.73;;
20322;SDS011;10319;52.206;20.996;2022-09-27T03:24:34;26.07;;;13.93;;
20322;SDS011;10319;52.206;20.996;2022-09-27T03:26:59;26.43;;;13.90;;
20322;SDS011;10319;52.206;20.996;2022-09-27T03:29:25;27.43;;;14.17;;
20322;SDS011;10319;52.206;20.996;2022-09-27T03:31:50;26.80;;;13.23;;
20322;SDS011;10319;52.206;20.996;2022-09-27T03:34:15;24.70;;;12.47;;
20322;SDS011;10319;52.206;20.996;2022-09-27T03:36:40;24.80;;;12.90;;
20322;SDS011;10319;52.206;20.996;2022-09-27T03:39:05;26.47;;;14.17;;
20322;SDS011;10319;52.206;20.996;2022-09-27T03:41:31;27.27;;;14.20;;
20322;SDS011;10319;52.206;20.996;2022-09-27T03:43:56;24.30;;;12.67;;
20322;SDS011;10319;52.206;20.996;2022-09-27T03:46:23;23.37;;;13.00;;
20322;SDS011;10319;52.206;20.996;2022-09-27T03:48:48;26.70;;;13.67;;
20322;SDS011;10319;52.206;20.996;2022-09-27T03:51:14;25.20;;;13.53;;
20322;SDS011;10319;52.206;20.996;2022-09-27T03:53:39;22.80;;;12.07;;
20322;SDS011;10319;52.206;20.996;2022-09-27T03:56:04;25.23;;;12.77;;
20322;SDS011;10319;52.206;20.996;2022-09-27T03:58:29;23.37;;;12.37;;
20322;SDS011;10319;52.206;20.996;2022-09-27T04:00:55;25.17;;;13.10;;
20322;SDS011;10319;52.206;20.996;2022-09-27T04:03:20;22.80;;;12.23;;
20322;SDS011;10319;52.206;20.996;2022-09-27T04:05:45;26.13;;;14.03;;
20322;SDS011;10319;52.206;20.996;2022-09-27T04:08:10;25.10;;;13.23;;
20322;SDS011;10319;52.206;20.996;2022-09-27T04:10:36;24.47;;;13.43;;
20322;SDS011;10319;52.206;20.996;2022-09-27T04:13:01;29.10;;;14.77;;
20322;SDS011;10319;52.206;20.996;2022-09-27T04:15:26;25.10;;;12.97;;
20322;SDS011;10319;52.206;20.996;2022-09-27T04:17:52;24.80;;;13.87;;
20322;SDS011;10319;52.206;20.996;2022-09-27T04:20:17;27.07;;;14.73;;
20322;SDS011;10319;52.206;20.996;2022-09-27T04:22:42;26.40;;;13.77;;
20322;SDS011;10319;52.206;20.996;2022-09-27T04:25:09;23.90;;;12.67;;
20322;SDS011;10319;52.206;20.996;2022-09-27T04:27:35;25.47;;;12.77;;
20322;SDS011;10319;52.206;20.996;2022-09-27T04:30:03;26.23;;;14.10;;
20322;SDS011;10319;52.206;20.996;2022-09-27T04:32:28;27.77;;;13.67;;
20322;SDS011;10319;52.206;20.996;2022-09-27T04:34:53;27.13;;;15.13;;
20322;SDS011;10319;52.206;20.996;2022-09-27T04:37:37;26.37;;;15.20;;
20322;SDS011;10319;52.206;20.996;2022-09-27T04:40:03;29.00;;;15.90;;
20322;SDS011;10319;52.206;20.996;2022-09-27T04:42:28;28.90;;;15.23;;
20322;SDS011;10319;52.206;20.996;2022-09-27T04:44:54;26.73;;;15.07;;
20322;SDS011;10319;52.206;20.996;2022-09-27T04:47:19;29.13;;;15.53;;
20322;SDS011;10319;52.206;20.996;2022-09-27T04:49:45;28.17;;;15.17;;
20322;SDS011;10319;52.206;20.996;2022-09-27T04:52:10;30.87;;;16.63;;
20322;SDS011;10319;52.206;20.996;2022-09-27T04:54:35;26.20;;;13.77;;
20322;SDS011;10319;52.206;20.996;2022-09-27T04:57:02;29.17;;;15.97;;
20322;SDS011;10319;52.206;20.996;2022-09-27T04:59:27;30.27;;;16.63;;
20322;SDS011;10319;52.206;20.996;2022-09-27T05:01:52;29.77;;;16.27;;
20322;SDS011;10319;52.206;20.996;2022-09-27T05:04:17;32.50;;;17.27;;
20322;SDS011;10319;52.206;20.996;2022-09-27T05:06:43;32.80;;;18.23;;
20322;SDS011;10319;52.206;20.996;2022-09-27T05:09:08;33.03;;;17.07;;
20322;SDS011;10319;52.206;20.996;2022-09-27T05:11:33;35.40;;;18.53;;
20322;SDS011;10319;52.206;20.996;2022-09-27T05:14:01;34.70;;;19.20;;
20322;SDS011;10319;52.206;20.996;2022-09-27T05:16:27;33.07;;;17.90;;
20322;SDS011;10319;52.206;20.996;2022-09-27T05:18:52;34.93;;;19.07;;
20322;SDS011;10319;52.206;20.996;2022-09-27T05:21:17;34.93;;;18.73;;
20322;SDS011;10319;52.206;20.996;2022-09-27T05:23:42;35.30;;;18.70;;
20322;SDS011;10319;52.206;20.996;2022-09-27T05:26:07;34.23;;;17.77;;
20322;SDS011;10319;52.206;20.996;2022-09-27T05:28:32;33.07;;;17.97;;
20322;SDS011;10319;52.206;20.996;2022-09-27T05:30:59;33.73;;;18.10;;
20322;SDS011;10319;52.206;20.996;2022-09-27T05:33:24;33.03;;;17.77;;
20322;SDS011;10319;52.206;20.996;2022-09-27T05:35:50;33.67;;;17.77;;
20322;SDS011;10319;52.206;20.996;2022-09-27T05:38:15;37.70;;;18.63;;
20322;SDS011;10319;52.206;20.996;2022-09-27T05:40:40;33.20;;;17.60;;
20322;SDS011;10319;52.206;20.996;2022-09-27T05:43:08;31.90;;;16.50;;
20322;SDS011;10319;52.206;20.996;2022-09-27T05:45:33;32.57;;;17.63;;
20322;SDS011;10319;52.206;20.996;2022-09-27T05:47:58;31.47;;;16.73;;
20322;SDS011;10319;52.206;20.996;2022-09-27T05:50:24;32.70;;;16.97;;
20322;SDS011;10319;52.206;20.996;2022-09-27T05:52:50;35.93;;;17.77;;
20322;SDS011;10319;52.206;20.996;2022-09-27T05:55:15;34.13;;;16.30;;
20322;SDS011;10319;52.206;20.996;2022-09-27T05:57:40;33.00;;;16.97;;
20322;SDS011;10319;52.206;20.996;2022-09-27T06:00:06;35.53;;;18.33;;
20322;SDS011;10319;52.206;20.996;2022-09-27T06:02:31;35.30;;;17.97;;
20322;SDS011;10319;52.206;20.996;2022-09-27T06:04:59;33.37;;;16.97;;
20322;SDS011;10319;52.206;20.996;2022-09-27T06:07:24;34.77;;;16.20;;
20322;SDS011;10319;52.206;20.996;2022-09-27T06:09:50;32.20;;;16.50;;
20322;SDS011;10319;52.206;20.996;2022-09-27T06:12:15;33.77;;;16.20;;
20322;SDS011;10319;52.206;20.996;2022-09-27T06:14:40;32.57;;;15.80;;
20322;SDS011;10319;52.206;20.996;2022-09-27T06:17:06;30.50;;;15.23;;
20322;SDS011;10319;52.206;20.996;2022-09-27T06:19:31;30.60;;;15.53;;
20322;SDS011;10319;52.206;20.996;2022-09-27T06:21:56;34.47;;;16.37;;
20322;SDS011;10319;52.206;20.996;2022-09-27T06:24:21;31.87;;;15.03;;
20322;SDS011;10319;52.206;20.996;2022-09-27T06:26:46;28.70;;;14.03;;
20322;SDS011;10319;52.206;20.996;2022-09-27T06:29:12;33.27;;;15.33;;
20322;SDS011;10319;52.206;20.996;2022-09-27T06:31:37;29.23;;;14.10;;
20322;SDS011;10319;52.206;20.996;2022-09-27T06:34:02;30.80;;;14.40;;
20322;SDS011;10319;52.206;20.996;2022-09-27T06:36:27;27.47;;;13.10;;
20322;SDS011;10319;52.206;20.996;2022-09-27T06:38:52;29.20;;;13.80;;
20322;SDS011;10319;52.206;20.996;2022-09-27T06:41:18;26.33;;;12.87;;
20322;SDS011;10319;52.206;20.996;2022-09-27T06:43:43;29.33;;;13.90;;
20322;SDS011;10319;52.206;20.996;2022-09-27T06:46:09;30.63;;;12.83;;
20322;SDS011;10319;52.206;20.996;2022-09-27T06:48:34;26.47;;;11.97;;
20322;SDS011;10319;52.206;20.996;2022-09-27T06:51:03;26.40;;;11.30;;
20322;SDS011;10319;52.206;20.996;2022-09-27T06:53:28;25.37;;;11.77;;
20322;SDS011;10319;52.206;20.996;2022-09-27T06:55:56;26.17;;;11.13;;
20322;SDS011;10319;52.206;20.996;2022-09-27T06:58:22;22.70;;;9.80;;
20322;SDS011;10319;52.206;20.996;2022-09-27T07:01:06;24.50;;;10.60;;
20322;SDS011;10319;52.206;20.996;2022-09-27T07:03:31;24.33;;;10.20;;
20322;SDS011;10319;52.206;20.996;2022-09-27T07:05:59;25.10;;;10.00;;
20322;SDS011;10319;52.206;20.996;2022-09-27T07:08:25;26.50;;;10.70;;
20322;SDS011;10319;52.206;20.996;2022-09-27T07:10:52;28.03;;;11.03;;
20322;SDS011;10319;52.206;20.996;2022-09-27T07:13:18;24.83;;;10.47;;
20322;SDS011;10319;52.206;20.996;2022-09-27T07:15:43;25.30;;;10.33;;
20322;SDS011;10319;52.206;20.996;2022-09-27T07:18:09;25.07;;;10.50;;
20322;SDS011;10319;52.206;20.996;2022-09-27T07:20:34;24.67;;;11.10;;
20322;SDS011;10319;52.206;20.996;2022-09-27T07:23:03;24.87;;;11.27;;
20322;SDS011;10319;52.206;20.996;2022-09-27T07:25:29;25.53;;;11.07;;
20322;SDS011;10319;52.206;20.996;2022-09-27T07:27:54;24.23;;;10.47;;
20322;SDS011;10319;52.206;20.996;2022-09-27T07:30:24;25.63;;;10.90;;
20322;SDS011;10319;52.206;20.996;2022-09-27T07:32:49;27.03;;;11.10;;
20322;SDS011;10319;52.206;20.996;2022-09-27T07:35:27;26.07;;;10.70;;
20322;SDS011;10319;52.206;20.996;2022-09-27T07:37:54;27.50;;;11.30;;
20322;SDS011;10319;52.206;20.996;2022-09-27T07:40:19;23.33;;;10.33;;
20322;SDS011;10319;52.206;20.996;2022-09-27T07:42:44;23.73;;;10.23;;
20322;SDS011;10319;52.206;20.996;2022-09-27T07:45:10;27.87;;;11.17;;
20322;SDS011;10319;52.206;20.996;2022-09-27T07:47:39;26.27;;;10.90;;
20322;SDS011;10319;52.206;20.996;2022-09-27T07:50:05;25.33;;;10.93;;
20322;SDS011;10319;52.206;20.996;2022-09-27T07:52:37;26.17;;;11.30;;
20322;SDS011;10319;52.206;20.996;2022-09-27T07:55:02;27.90;;;11.37;;
20322;SDS011;10319;52.206;20.996;2022-09-27T07:57:27;28.13;;;12.03;;
20322;SDS011;10319;52.206;20.996;2022-09-27T07:59:53;26.60;;;11.80;;
20322;SDS011;10319;52.206;20.996;2022-09-27T08:02:19;27.67;;;11.60;;
20322;SDS011;10319;52.206;20.996;2022-09-27T08:04:45;27.03;;;12.17;;
20322;SDS011;10319;52.206;20.996;2022-09-27T08:07:14;23.90;;;11.57;;
20322;SDS011;10319;52.206;20.996;2022-09-27T08:09:39;25.17;;;11.27;;
20322;SDS011;10319;52.206;20.996;2022-09-27T08:12:04;23.40;;;11.17;;
20322;SDS011;10319;52.206;20.996;2022-09-27T08:14:29;25.17;;;11.47;;
20322;SDS011;10319;52.206;20.996;2022-09-27T08:16:55;23.80;;;10.83;;
20322;SDS011;10319;52.206;20.996;2022-09-27T08:19:20;22.20;;;9.90;;
20322;SDS011;10319;52.206;20.996;2022-09-27T08:21:45;22.53;;;10.27;;
20322;SDS011;10319;52.206;20.996;2022-09-27T08:24:11;23.73;;;10.83;;
20322;SDS011;10319;52.206;20.996;2022-09-27T08:26:36;26.90;;;11.07;;
20322;SDS011;10319;52.206;20.996;2022-09-27T08:29:02;26.33;;;11.30;;
20322;SDS011;10319;52.206;20.996;2022-09-27T08:31:27;23.67;;;10.73;;
20322;SDS011;10319;52.206;20.996;2022-09-27T08:33:52;26.13;;;11.47;;
20322;SDS011;10319;52.206;20.996;2022-09-27T08:36:17;25.43;;;12.13;;
20322;SDS011;10319;52.206;20.996;2022-09-27T08:38:46;24.60;;;10.83;;
20322;SDS011;10319;52.206;20.996;2022-09-27T08:46:19;22.03;;;10.93;;
20322;SDS011;10319;52.206;20.996;2022-09-27T08:48:48;22.50;;;10.77;;
20322;SDS011;10319;52.206;20.996;2022-09-27T08:51:16;21.73;;;10.23;;
20322;SDS011;10319;52.206;20.996;2022-09-27T08:53:46;21.60;;;10.57;;
20322;SDS011;10319;52.206;20.996;2022-09-27T08:56:15;23.50;;;11.43;;
20322;SDS011;10319;52.206;20.996;2022-09-27T08:59:30;21.30;;;11.30;;
20322;SDS011;10319;52.206;20.996;2022-09-27T09:01:30;22.57;;;11.30;;
20322;SDS011;10319;52.206;20.996;2022-09-27T09:03:56;25.10;;;11.80;;
20322;SDS011;10319;52.206;20.996;2022-09-27T09:06:25;24.03;;;11.37;;
20322;SDS011;10319;52.206;20.996;2022-09-27T09:08:55;22.57;;;10.90;;
20322;SDS011;10319;52.206;20.996;2022-09-27T09:11:33;21.63;;;10.63;;
20322;SDS011;10319;52.206;20.996;2022-09-27T09:19:42;22.30;;;11.00;;
20322;SDS011;10319;52.206;20.996;2022-09-27T09:27:26;21.73;;;10.90;;
20322;SDS011;10319;52.206;20.996;2022-09-27T09:35:05;21.60;;;10.50;;
20322;SDS011;10319;52.206;20.996;2022-09-27T09:40:02;23.97;;;10.97;;
20322;SDS011;10319;52.206;20.996;2022-09-27T09:42:33;22.13;;;10.27;;
20322;SDS011;10319;52.206;20.996;2022-09-27T09:45:04;21.33;;;10.33;;
20322;SDS011;10319;52.206;20.996;2022-09-27T09:47:35;21.37;;;10.53;;
20322;SDS011;10319;52.206;20.996;2022-09-27T09:50:12;21.97;;;10.73;;
20322;SDS011;10319;52.206;20.996;2022-09-27T09:52:41;21.37;;;10.90;;
20322;SDS011;10319;52.206;20.996;2022-09-27T09:55:18;21.40;;;10.43;;
20322;SDS011;10319;52.206;20.996;2022-09-27T10:00:27;22.60;;;10.57;;
20322;SDS011;10319;52.206;20.996;2022-09-27T10:02:53;22.63;;;11.53;;
20322;SDS011;10319;52.206;20.996;2022-09-27T10:05:22;21.67;;;10.57;;
20322;SDS011;10319;52.206;20.996;2022-09-27T10:07:48;20.37;;;10.23;;
20322;SDS011;10319;52.206;20.996;2022-09-27T10:10:15;22.00;;;10.50;;
20322;SDS011;10319;52.206;20.996;2022-09-27T10:12:41;20.80;;;10.83;;
20322;SDS011;10319;52.206;20.996;2022-09-27T10:15:06;22.53;;;10.37;;
20322;SDS011;10319;52.206;20.996;2022-09-27T10:17:36;19.90;;;9.73;;
20322;SDS011;10319;52.206;20.996;2022-09-27T10:20:03;19.70;;;9.80;;
20322;SDS011;10319;52.206;20.996;2022-09-27T10:22:30;19.83;;;10.03;;
20322;SDS011;10319;52.206;20.996;2022-09-27T10:24:59;20.53;;;10.40;;
20322;SDS011;10319;52.206;20.996;2022-09-27T10:27:27;20.80;;;10.63;;
20322;SDS011;10319;52.206;20.996;2022-09-27T10:30:01;19.60;;;9.60;;
20322;SDS011;10319;52.206;20.996;2022-09-27T10:32:31;18.77;;;9.17;;
20322;SDS011;10319;52.206;20.996;2022-09-27T10:37:41;20.90;;;10.17;;
20322;SDS011;10319;52.206;20.996;2022-09-27T10:42:51;19.40;;;9.80;;
20322;SDS011;10319;52.206;20.996;2022-09-27T10:47:48;22.57;;;10.60;;
20322;SDS011;10319;52.206;20.996;2022-09-27T10:50:24;20.57;;;10.90;;
20322;SDS011;10319;52.206;20.996;2022-09-27T10:53:34;22.40;;;11.83;;
20322;SDS011;10319;52.206;20.996;2022-09-27T10:55:41;22.87;;;11.90;;
20322;SDS011;10319;52.206;20.996;2022-09-27T10:58:18;20.27;;;11.27;;
20322;SDS011;10319;52.206;20.996;2022-09-27T11:00:44;22.27;;;11.50;;
20322;SDS011;10319;52.206;20.996;2022-09-27T11:03:18;22.50;;;11.83;;
20322;SDS011;10319;52.206;20.996;2022-09-27T11:05:43;19.50;;;10.53;;
20322;SDS011;10319;52.206;20.996;2022-09-27T11:10:43;19.53;;;10.63;;
20322;SDS011;10319;52.206;20.996;2022-09-27T11:16:16;19.90;;;10.77;;
20322;SDS011;10319;52.206;20.996;2022-09-27T11:23:44;21.27;;;10.77;;
20322;SDS011;10319;52.206;20.996;2022-09-27T11:26:20;20.57;;;11.13;;
20322;SDS011;10319;52.206;20.996;2022-09-27T11:36:59;19.53;;;10.07;;
20322;SDS011;10319;52.206;20.996;2022-09-27T11:39:38;20.07;;;11.03;;
20322;SDS011;10319;52.206;20.996;2022-09-27T11:55:34;19.53;;;10.57;;
20322;SDS011;10319;52.206;20.996;2022-09-27T11:58:09;18.63;;;10.13;;
20322;SDS011;10319;52.206;20.996;2022-09-27T12:10:40;19.80;;;10.47;;
20322;SDS011;10319;52.206;20.996;2022-09-27T12:13:07;17.30;;;8.93;;
20322;SDS011;10319;52.206;20.996;2022-09-27T12:15:35;18.67;;;10.00;;
20322;SDS011;10319;52.206;20.996;2022-09-27T12:20:33;17.63;;;9.60;;
20322;SDS011;10319;52.206;20.996;2022-09-27T12:25:26;18.10;;;8.73;;
20322;SDS011;10319;52.206;20.996;2022-09-27T12:27:56;16.73;;;8.67;;
20322;SDS011;10319;52.206;20.996;2022-09-27T12:30:23;16.67;;;8.33;;
20322;SDS011;10319;52.206;20.996;2022-09-27T12:32:56;16.60;;;8.10;;
20322;SDS011;10319;52.206;20.996;2022-09-27T12:35:28;15.75;;;7.82;;
20322;SDS011;10319;52.206;20.996;2022-09-27T12:40:33;15.45;;;7.30;;
20322;SDS011;10319;52.206;20.996;2022-09-27T12:48:15;14.80;;;7.20;;
20322;SDS011;10319;52.206;20.996;2022-09-27T12:50:43;13.57;;;6.15;;
20322;SDS011;10319;52.206;20.996;2022-09-27T12:53:11;15.00;;;6.80;;
20322;SDS011;10319;52.206;20.996;2022-09-27T12:55:51;15.18;;;6.43;;
20322;SDS011;10319;52.206;20.996;2022-09-27T12:58:36;13.52;;;5.60;;
20322;SDS011;10319;52.206;20.996;2022-09-27T13:11:35;12.52;;;5.00;;
20322;SDS011;10319;52.206;20.996;2022-09-27T13:14:04;13.55;;;5.38;;
20322;SDS011;10319;52.206;20.996;2022-09-27T13:16:30;13.75;;;5.28;;
20322;SDS011;10319;52.206;20.996;2022-09-27T13:18:56;13.63;;;5.38;;
20322;SDS011;10319;52.206;20.996;2022-09-27T13:24:28;13.60;;;5.15;;
20322;SDS011;10319;52.206;20.996;2022-09-27T13:26:54;13.15;;;4.95;;
20322;SDS011;10319;52.206;20.996;2022-09-27T13:29:24;12.82;;;5.18;;
20322;SDS011;10319;52.206;20.996;2022-09-27T13:39:45;11.93;;;4.68;;
20322;SDS011;10319;52.206;20.996;2022-09-27T13:42:32;12.10;;;4.53;;
20322;SDS011;10319;52.206;20.996;2022-09-27T13:45:14;11.68;;;4.22;;
20322;SDS011;10319;52.206;20.996;2022-09-27T13:47:43;11.60;;;3.83;;
20322;SDS011;10319;52.206;20.996;2022-09-27T13:50:25;13.02;;;4.03;;
20322;SDS011;10319;52.206;20.996;2022-09-27T13:52:59;11.63;;;3.95;;
20322;SDS011;10319;52.206;20.996;2022-09-27T14:00:44;11.13;;;3.80;;
20322;SDS011;10319;52.206;20.996;2022-09-27T14:05:56;12.05;;;4.03;;
20322;SDS011;10319;52.206;20.996;2022-09-27T14:08:55;10.70;;;3.60;;
20322;SDS011;10319;52.206;20.996;2022-09-27T14:11:18;11.90;;;3.80;;
20322;SDS011;10319;52.206;20.996;2022-09-27T14:13:45;10.80;;;3.58;;
20322;SDS011;10319;52.206;20.996;2022-09-27T14:16:15;13.57;;;3.88;;
20322;SDS011;10319;52.206;20.996;2022-09-27T14:18:48;11.23;;;3.90;;
20322;SDS011;10319;52.206;20.996;2022-09-27T14:21:21;12.10;;;4.13;;
20322;SDS011;10319;52.206;20.996;2022-09-27T14:23:50;10.70;;;3.85;;
20322;SDS011;10319;52.206;20.996;2022-09-27T14:26:22;12.55;;;4.05;;
20322;SDS011;10319;52.206;20.996;2022-09-27T14:28:48;14.05;;;4.28;;
20322;SDS011;10319;52.206;20.996;2022-09-27T14:31:14;12.00;;;4.00;;
20322;SDS011;10319;52.206;20.996;2022-09-27T14:33:41;11.38;;;4.13;;
20322;SDS011;10319;52.206;20.996;2022-09-27T14:36:07;10.15;;;3.60;;
20322;SDS011;10319;52.206;20.996;2022-09-27T14:38:56;10.85;;;3.95;;
20322;SDS011;10319;52.206;20.996;2022-09-27T14:41:22;13.73;;;4.30;;
20322;SDS011;10319;52.206;20.996;2022-09-27T14:43:48;11.75;;;4.32;;
20322;SDS011;10319;52.206;20.996;2022-09-27T14:46:27;12.63;;;4.22;;
20322;SDS011;10319;52.206;20.996;2022-09-27T14:48:53;11.80;;;4.50;;
20322;SDS011;10319;52.206;20.996;2022-09-27T14:51:20;13.38;;;4.93;;
20322;SDS011;10319;52.206;20.996;2022-09-27T14:53:50;12.00;;;4.22;;
20322;SDS011;10319;52.206;20.996;2022-09-27T14:56:21;12.95;;;4.53;;
20322;SDS011;10319;52.206;20.996;2022-09-27T14:58:49;12.10;;;4.43;;
20322;SDS011;10319;52.206;20.996;2022-09-27T15:01:17;12.10;;;4.60;;
20322;SDS011;10319;52.206;20.996;2022-09-27T15:03:44;12.80;;;4.70;;
20322;SDS011;10319;52.206;20.996;2022-09-27T15:06:10;12.48;;;4.55;;
20322;SDS011;10319;52.206;20.996;2022-09-27T15:08:36;12.23;;;4.60;;
20322;SDS011;10319;52.206;20.996;2022-09-27T15:11:02;13.00;;;4.63;;
20322;SDS011;10319;52.206;20.996;2022-09-27T15:13:29;12.45;;;4.70;;
20322;SDS011;10319;52.206;20.996;2022-09-27T15:15:55;13.00;;;4.78;;
20322;SDS011;10319;52.206;20.996;2022-09-27T15:18:38;12.95;;;5.05;;
20322;SDS011;10319;52.206;20.996;2022-09-27T15:21:05;14.82;;;5.28;;
20322;SDS011;10319;52.206;20.996;2022-09-27T15:23:35;12.90;;;4.82;;
20322;SDS011;10319;52.206;20.996;2022-09-27T15:26:06;12.23;;;4.47;;
20322;SDS011;10319;52.206;20.996;2022-09-27T15:28:33;11.90;;;4.57;;
20322;SDS011;10319;52.206;20.996;2022-09-27T15:31:02;13.70;;;5.47;;
20322;SDS011;10319;52.206;20.996;2022-09-27T15:33:28;13.13;;;4.97;;
20322;SDS011;10319;52.206;20.996;2022-09-27T15:35:56;13.25;;;4.90;;
20322;SDS011;10319;52.206;20.996;2022-09-27T15:38:26;14.57;;;5.50;;
20322;SDS011;10319;52.206;20.996;2022-09-27T15:40:55;13.10;;;5.28;;
20322;SDS011;10319;52.206;20.996;2022-09-27T15:43:22;12.97;;;5.07;;
20322;SDS011;10319;52.206;20.996;2022-09-27T15:45:53;12.77;;;4.78;;
20322;SDS011;10319;52.206;20.996;2022-09-27T15:48:19;13.13;;;5.25;;
20322;SDS011;10319;52.206;20.996;2022-09-27T15:50:44;13.65;;;5.60;;
20322;SDS011;10319;52.206;20.996;2022-09-27T15:53:56;13.50;;;5.33;;
20322;SDS011;10319;52.206;20.996;2022-09-27T15:55:56;13.17;;;5.23;;
20322;SDS011;10319;52.206;20.996;2022-09-27T15:58:21;13.60;;;5.10;;
20322;SDS011;10319;52.206;20.996;2022-09-27T16:00:57;14.27;;;5.67;;
20322;SDS011;10319;52.206;20.996;2022-09-27T16:03:23;13.07;;;5.23;;
20322;SDS011;10319;52.206;20.996;2022-09-27T16:05:49;13.60;;;5.40;;
20322;SDS011;10319;52.206;20.996;2022-09-27T16:08:16;13.10;;;5.30;;
20322;SDS011;10319;52.206;20.996;2022-09-27T16:10:43;14.37;;;6.13;;
20322;SDS011;10319;52.206;20.996;2022-09-27T16:13:09;14.63;;;5.93;;
20322;SDS011;10319;52.206;20.996;2022-09-27T16:15:34;13.90;;;5.63;;
20322;SDS011;10319;52.206;20.996;2022-09-27T16:18:00;15.70;;;5.53;;
20322;SDS011;10319;52.206;20.996;2022-09-27T16:20:25;13.33;;;5.30;;
20322;SDS011;10319;52.206;20.996;2022-09-27T16:22:52;13.93;;;5.50;;
20322;SDS011;10319;52.206;20.996;2022-09-27T16:25:17;14.07;;;5.80;;
20322;SDS011;10319;52.206;20.996;2022-09-27T16:27:43;13.77;;;5.37;;
20322;SDS011;10319;52.206;20.996;2022-09-27T16:30:08;13.37;;;5.27;;
20322;SDS011;10319;52.206;20.996;2022-09-27T16:32:38;14.27;;;5.70;;
20322;SDS011;10319;52.206;20.996;2022-09-27T16:35:04;14.00;;;5.43;;
20322;SDS011;10319;52.206;20.996;2022-09-27T16:37:29;13.80;;;5.60;;
20322;SDS011;10319;52.206;20.996;2022-09-27T16:39:55;14.23;;;6.03;;
20322;SDS011;10319;52.206;20.996;2022-09-27T16:42:20;14.00;;;5.70;;
20322;SDS011;10319;52.206;20.996;2022-09-27T16:44:45;14.40;;;5.70;;
20322;SDS011;10319;52.206;20.996;2022-09-27T16:47:14;14.60;;;5.80;;
20322;SDS011;10319;52.206;20.996;2022-09-27T16:49:39;16.13;;;6.27;;
20322;SDS011;10319;52.206;20.996;2022-09-27T16:52:23;13.73;;;5.63;;
20322;SDS011;10319;52.206;20.996;2022-09-27T16:54:48;14.83;;;5.87;;
20322;SDS011;10319;52.206;20.996;2022-09-27T16:57:14;14.73;;;5.43;;
20322;SDS011;10319;52.206;20.996;2022-09-27T16:59:39;14.03;;;5.60;;